Time;durP1;ratioP1;P1;durP2;ratioP2;P2;SDS_P1;SDS_P2;PMS_P1;PMS_P2;Temp;Humidity;BMP_temperature;BMP_pressure;BME280_temperature;BME280_humidity;BME280_pressure;Samples;Min_cycle;Max_cycle;Signal;HPM_P1;HPM_P2
2023/03/14 00:00:30;;;;;;;;;;;12.80;82.00;;;12.08;64.16;98078.75;5048539;28;19933;-87
2023/03/14 00:02:57;;;;;;;;;;;12.80;81.80;;;12.08;64.50;98078.75;5049607;28;19925;-87
2023/03/14 00:05:24;;;;;;;;;;;12.80;82.00;;;12.08;64.35;98084.09;5050445;28;19932;-87
2023/03/14 00:07:51;;;;;;;;;;;12.80;82.00;;;12.07;64.09;98067.28;5049847;28;19936;-88
2023/03/14 00:10:18;;;;;;;;;;;12.80;81.80;;;12.04;64.08;98067.81;5046177;28;20317;-87
2023/03/14 00:12:47;;;;;;;;;;;12.80;81.60;;;12.06;64.21;98044.31;5049293;28;19928;-87
2023/03/14 00:15:14;;;;;;;;;;;12.80;81.90;;;12.05;64.34;98033.88;5050266;28;19933;-87
2023/03/14 00:17:44;;;;;;;;;;;12.80;82.00;;;12.03;64.02;98028.84;5049873;28;20402;-86
2023/03/14 00:20:12;;;;;;;;;;;12.80;81.60;;;12.03;63.67;98028.03;5045712;28;19932;-87
2023/03/14 00:22:39;;;;;;;;;;;12.70;81.50;;;12.01;63.94;98020.31;5049784;28;20042;-87
2023/03/14 00:25:08;;;;;;;;;;;12.70;81.70;;;12.04;64.21;98013.59;5048673;28;19929;-87
2023/03/14 00:27:53;;;;;;;;;;;12.70;82.00;;;12.03;64.13;98012.00;5047576;28;20028;-87
2023/03/14 00:30:38;;;;;;;;;;;12.70;81.90;;;12.03;64.11;98030.72;5048626;28;19929;-87
2023/03/14 00:33:05;;;;;;;;;;;12.70;82.00;;;12.01;64.37;98036.34;5049040;28;20033;-87
2023/03/14 00:35:32;;;;;;;;;;;12.70;82.00;;;12.01;64.33;98054.25;5050714;28;20360;-88
2023/03/14 00:37:59;;;;;;;;;;;12.70;82.10;;;12.00;64.16;98064.09;5050085;28;19956;-87
2023/03/14 00:40:26;;;;;;;;;;;12.90;82.20;;;11.95;64.49;98068.69;5045778;28;19929;-87
2023/03/14 00:42:53;;;;;;;;;;;12.60;82.20;;;11.94;65.11;98077.78;5048884;28;19951;-87
2023/03/14 00:45:20;;;;;;;;;;;12.60;82.40;;;11.93;65.47;98102.91;5049127;28;19929;-87
2023/03/14 00:47:48;;;;;;;;;;;12.60;83.40;;;11.93;67.09;98109.06;5046308;28;19972;-87
2023/03/14 00:50:15;;;;;;;;;;;12.60;84.70;;;11.90;67.79;98114.16;5047756;28;19929;-87
2023/03/14 00:52:42;;;;;;;;;;;12.70;85.30;;;11.84;69.82;98116.06;5049432;28;19939;-87
2023/03/14 00:55:10;;;;;;;;;;;12.60;87.00;;;11.76;71.04;98119.28;5052142;28;19935;-87
2023/03/14 00:57:36;;;;;;;;;;;12.50;88.20;;;11.72;71.69;98112.91;5045638;28;19928;-87
2023/03/14 01:00:08;;;;;;;;;;;12.50;88.50;;;11.65;71.78;98110.53;5044437;28;19935;-88
2023/03/14 01:02:35;;;;;;;;;;;12.40;88.70;;;11.52;72.31;98100.47;5047593;28;20024;-87
2023/03/14 01:05:04;;;;;;;;;;;12.40;89.30;;;11.50;72.20;98095.41;5049653;28;20377;-88
2023/03/14 01:07:31;;;;;;;;;;;12.20;88.80;;;11.48;71.79;98107.44;5045311;28;19958;-87
2023/03/14 01:09:58;;;;;;;;;;;12.20;88.70;;;11.43;71.65;98102.13;5041858;28;19924;-88
2023/03/14 01:12:25;;;;;;;;;;;12.10;88.80;;;11.42;71.48;98092.50;5049412;28;19929;-87
2023/03/14 01:14:52;;;;;;;;;;;12.20;88.50;;;11.40;71.58;98082.13;5047324;28;19928;-87
2023/03/14 01:17:19;;;;;;;;;;;12.10;88.70;;;11.36;71.90;98099.75;5041433;28;19936;-87
2023/03/14 01:19:46;;;;;;;;;;;12.00;88.90;;;11.36;72.10;98099.75;5041751;28;19933;-87
2023/03/14 01:22:15;;;;;;;;;;;12.00;89.20;;;11.37;72.19;98095.19;5049154;28;19925;-87
2023/03/14 01:24:42;;;;;;;;;;;12.00;89.30;;;11.38;72.22;98092.28;5045889;28;20325;-87
2023/03/14 01:27:09;;;;;;;;;;;12.10;89.10;;;11.37;72.13;98101.38;5046070;28;19929;-87
2023/03/14 01:29:36;;;;;;;;;;;12.00;89.30;;;11.36;72.37;98099.75;5045556;28;20724;-87
2023/03/14 01:32:03;;;;;;;;;;;12.00;89.40;;;11.31;72.66;98097.09;5049103;28;19924;-87
2023/03/14 01:34:30;;;;;;;;;;;12.00;90.00;;;11.24;73.00;98092.06;5048332;28;20055;-87
2023/03/14 01:36:57;;;;;;;;;;;12.10;90.20;;;11.27;72.88;98091.53;5044157;28;19928;-87
2023/03/14 01:39:25;;;;;;;;;;;12.00;90.00;;;11.30;72.91;98079.50;5057140;22;19933;-80
2023/03/14 01:41:52;;;;;;;;;;;12.00;90.10;;;11.29;73.00;98075.25;5046242;28;20182;-81
2023/03/14 01:44:19;;;;;;;;;;;12.00;90.20;;;11.25;73.25;98060.84;5040643;28;19929;-81
2023/03/14 01:46:47;;;;;;;;;;;11.90;90.40;;;11.24;73.54;98068.06;5038048;28;19935;-82
2023/03/14 01:49:35;;;;;;;;;;;11.90;90.70;;;11.24;73.13;98069.94;5046660;28;20427;-81
2023/03/14 01:52:13;;;;;;;;;;;11.90;90.50;;;11.25;73.55;98066.97;5048346;28;20021;-81
2023/03/14 01:54:43;;;;;;;;;;;11.90;90.80;;;11.18;73.88;98071.03;5045754;28;20338;-80
2023/03/14 01:57:13;;;;;;;;;;;11.90;90.80;;;11.20;73.74;98063.53;5046761;28;19928;-81
2023/03/14 01:59:41;;;;;;;;;;;11.90;90.80;;;11.20;73.71;98064.34;5062401;28;20448;-81
2023/03/14 02:02:10;;;;;;;;;;;11.90;90.90;;;11.15;73.35;98061.69;5049014;28;19972;-80
2023/03/14 02:04:37;;;;;;;;;;;11.80;90.60;;;11.04;74.00;98060.16;5046827;28;19936;-81
2023/03/14 02:07:10;;;;;;;;;;;11.70;91.10;;;11.05;74.40;98062.53;5044259;28;20397;-81
2023/03/14 02:09:44;;;;;;;;;;;11.70;91.30;;;11.05;74.14;98062.53;5041686;28;19948;-81
2023/03/14 02:12:17;;;;;;;;;;;11.70;91.10;;;11.01;74.07;98056.16;5047253;28;19982;-81
2023/03/14 02:14:48;;;;;;;;;;;11.70;91.20;;;11.01;74.29;98056.16;5046736;28;19929;-81
2023/03/14 02:17:20;;;;;;;;;;;11.70;91.10;;;11.03;74.29;98047.91;5046179;28;19935;-81
2023/03/14 02:20:23;;;;;;;;;;;11.70;91.20;;;11.02;74.24;98056.94;5043808;28;20098;-81
2023/03/14 02:22:55;;;;;;;;;;;11.70;91.20;;;10.99;74.22;98052.97;5046501;28;19940;-80
2023/03/14 02:25:29;;;;;;;;;;;11.70;91.40;;;11.02;74.24;98051.63;5045987;28;19929;-81
2023/03/14 02:27:58;;;;;;;;;;;11.70;91.20;;;11.02;74.09;98054.28;5046968;28;19960;-80
2023/03/14 02:30:28;;;;;;;;;;;11.70;91.40;;;10.99;74.12;98057.50;5047130;28;20023;-80
2023/03/14 02:32:58;;;;;;;;;;;11.70;91.30;;;11.00;74.60;98053.78;5046779;28;19964;-80
2023/03/14 02:35:27;;;;;;;;;;;11.70;91.50;;;10.97;74.35;98060.44;5046597;28;19933;-81
2023/03/14 02:37:58;;;;;;;;;;;11.70;91.40;;;10.94;74.22;98049.53;5045192;28;20016;-81
2023/03/14 02:40:28;;;;;;;;;;;11.60;91.00;;;10.98;74.36;98050.56;5042084;28;20807;-81
2023/03/14 02:42:57;;;;;;;;;;;11.60;91.40;;;11.00;74.34;98048.44;5048945;28;20008;-81
2023/03/14 02:45:42;;;;;;;;;;;11.70;91.40;;;10.98;74.63;98050.56;5044934;28;19940;-81
2023/03/14 02:48:15;;;;;;;;;;;11.60;91.60;;;11.00;74.38;98064.44;5046656;28;19931;-81
2023/03/14 02:50:42;;;;;;;;;;;11.60;91.40;;;10.97;74.77;98055.09;5045343;28;19929;-81
2023/03/14 02:53:10;;;;;;;;;;;11.60;91.50;;;10.96;74.79;98052.72;5046005;28;19925;-81
2023/03/14 02:55:37;;;;;;;;;;;11.60;91.60;;;10.96;74.66;98050.84;5045767;28;20447;-82
2023/03/14 02:58:10;;;;;;;;;;;11.60;91.50;;;10.97;74.73;98043.63;5036804;28;20424;-81
2023/03/14 03:00:38;;;;;;;;;;;11.60;91.60;;;10.96;74.47;98039.38;5047747;28;20607;-81
2023/03/14 03:03:08;;;;;;;;;;;11.60;91.50;;;10.97;74.20;98035.63;5045130;28;19928;-81
2023/03/14 03:05:35;;;;;;;;;;;11.60;91.20;;;10.98;74.44;98040.72;5048563;28;19933;-81
2023/03/14 03:08:03;;;;;;;;;;;11.60;91.50;;;10.98;74.04;98034.56;5046334;28;19936;-81
2023/03/14 03:10:32;;;;;;;;;;;11.60;91.20;;;10.95;73.75;98027.91;5046452;28;20620;-81
2023/03/14 03:12:59;;;;;;;;;;;11.80;90.90;;;10.96;73.78;98026.03;5046786;28;19935;-81
2023/03/14 03:15:27;;;;;;;;;;;11.60;90.80;;;10.91;73.84;98018.88;5044873;28;19929;-81
2023/03/14 03:17:58;;;;;;;;;;;11.60;90.90;;;10.90;73.60;98021.81;5045685;28;20341;-81
2023/03/14 03:20:24;;;;;;;;;;;11.50;90.80;;;10.85;73.89;98017.28;5046427;28;19956;-81
2023/03/14 03:22:52;;;;;;;;;;;11.50;91.00;;;10.81;73.63;98010.91;5047865;28;19935;-81
2023/03/14 03:25:19;;;;;;;;;;;11.50;90.80;;;10.82;73.86;98010.63;5047260;28;19951;-81
2023/03/14 03:27:46;;;;;;;;;;;11.50;91.10;;;10.83;73.75;98006.09;5047183;28;20011;-82
2023/03/14 03:30:17;;;;;;;;;;;11.50;90.90;;;10.83;73.67;98000.75;5045542;28;20396;-81
2023/03/14 03:32:44;;;;;;;;;;;11.50;90.80;;;10.84;73.53;97999.72;5045334;28;19935;-81
2023/03/14 03:35:14;;;;;;;;;;;11.50;90.70;;;10.87;73.46;97999.16;5045048;28;20472;-81
2023/03/14 03:37:42;;;;;;;;;;;11.50;90.70;;;10.91;73.37;97994.88;5043913;28;20455;-81
2023/03/14 03:40:10;;;;;;;;;;;11.50;90.70;;;10.92;73.38;98006.31;5047882;28;19935;-81
2023/03/14 03:42:37;;;;;;;;;;;11.50;90.80;;;10.94;73.17;98014.88;5043285;28;19929;-81
2023/03/14 03:45:09;;;;;;;;;;;11.50;90.60;;;10.94;73.37;98009.53;5045921;28;19936;-81
2023/03/14 03:47:40;;;;;;;;;;;11.50;90.80;;;10.93;73.49;98018.59;5043286;28;20074;-81
2023/03/14 03:50:08;;;;;;;;;;;11.50;90.80;;;10.92;74.04;98011.66;5048849;28;19929;-81
2023/03/14 03:52:37;;;;;;;;;;;11.50;91.40;;;10.90;74.67;98011.16;5049677;28;19932;-81
2023/03/14 03:55:04;;;;;;;;;;;11.50;92.00;;;10.90;74.42;98009.28;5045182;28;20697;-81
2023/03/14 03:57:31;;;;;;;;;;;11.50;91.80;;;10.91;74.45;98008.19;5046572;28;20029;-81
2023/03/14 03:59:58;;;;;;;;;;;11.50;91.60;;;10.88;74.55;97995.41;5049540;28;19929;-81
2023/03/14 04:02:25;;;;;;;;;;;11.50;91.60;;;10.89;74.59;98006.88;5050485;28;19925;-81
2023/03/14 04:04:52;;;;;;;;;;;11.50;91.50;;;10.87;74.75;98007.16;5049061;28;19972;-81
2023/03/14 04:07:19;;;;;;;;;;;11.50;91.60;;;10.87;74.68;98006.34;5050054;28;19933;-81
2023/03/14 04:09:48;;;;;;;;;;;11.50;91.60;;;10.86;74.52;98012.75;5049209;28;20312;-81
2023/03/14 04:12:37;;;;;;;;;;;11.50;91.70;;;10.85;74.31;98006.63;5047663;28;19929;-81
2023/03/14 04:15:11;;;;;;;;;;;11.50;91.40;;;10.78;74.59;98009.59;5049639;28;20270;-81
2023/03/14 04:17:42;;;;;;;;;;;11.50;91.80;;;10.74;75.03;98005.88;5046869;28;19975;-81
2023/03/14 04:20:10;;;;;;;;;;;11.50;92.00;;;10.72;75.27;98004.53;5050142;28;20381;-81
2023/03/14 04:22:38;;;;;;;;;;;11.40;92.00;;;10.71;75.42;98003.75;5046892;28;19941;-81
2023/03/14 04:25:08;;;;;;;;;;;11.40;92.20;;;10.69;75.65;98008.56;5049073;28;20316;-81
2023/03/14 04:27:40;;;;;;;;;;;11.40;92.30;;;10.64;76.14;98005.94;5048167;28;19928;-81
2023/03/14 04:30:16;;;;;;;;;;;11.30;92.60;;;10.57;76.58;98016.06;5048403;28;19931;-81
2023/03/14 04:32:48;;;;;;;;;;;11.30;93.00;;;10.58;76.61;98005.13;5049961;28;19933;-81
2023/03/14 04:35:16;;;;;;;;;;;11.30;93.00;;;10.61;76.34;98009.13;5047072;28;21148;-81
2023/03/14 04:37:43;;;;;;;;;;;11.30;93.00;;;10.62;75.85;98002.72;5048721;28;19936;-81
2023/03/14 04:40:14;;;;;;;;;;;11.30;92.60;;;10.53;75.79;98001.69;5048744;28;19935;-81
2023/03/14 04:42:40;;;;;;;;;;;11.20;92.40;;;10.53;75.87;97999.00;5048776;28;20015;-81
2023/03/14 04:45:09;;;;;;;;;;;11.20;92.40;;;10.53;75.83;97996.34;5046205;28;20403;-81
2023/03/14 04:47:38;;;;;;;;;;;11.20;92.50;;;10.56;75.64;97993.94;5048151;28;19929;-81
2023/03/14 04:50:06;;;;;;;;;;;11.20;92.40;;;10.57;75.60;98002.72;5048415;28;20027;-81
2023/03/14 04:52:33;;;;;;;;;;;11.20;92.30;;;10.62;75.34;97997.38;5047181;28;19936;-81
2023/03/14 04:55:01;;;;;;;;;;;11.30;92.40;;;10.56;75.40;98003.81;5043515;28;19929;-81
2023/03/14 04:57:29;;;;;;;;;;;11.20;92.40;;;10.52;75.66;97994.75;5047976;28;19964;-81
2023/03/14 04:59:56;;;;;;;;;;;11.20;92.50;;;10.55;75.49;97983.56;5048260;28;19925;-81
2023/03/14 05:02:39;;;;;;;;;;;11.20;92.30;;;10.57;75.38;97989.41;5045629;28;20439;-81
2023/03/14 05:05:22;;;;;;;;;;;11.20;92.20;;;10.55;75.50;97987.03;5048359;28;19929;-80
2023/03/14 05:08:05;;;;;;;;;;;11.20;92.20;;;10.57;75.16;97973.41;5041545;28;20503;-82
2023/03/14 05:10:52;;;;;;;;;;;11.20;92.10;;;10.55;75.43;97967.56;5048220;28;19932;-80
2023/03/14 05:13:48;;;;;;;;;;;11.20;92.40;;;10.59;75.27;97973.97;5046160;28;19978;-79
2023/03/14 05:16:44;;;;;;;;;;;11.20;92.30;;;10.57;75.13;97960.88;5046148;28;19933;-79
2023/03/14 05:19:31;;;;;;;;;;;11.20;92.30;;;10.59;75.09;97955.31;5047959;28;19929;-86
2023/03/14 05:22:17;;;;;;;;;;;11.20;92.20;;;10.60;74.83;97951.56;5048179;28;19935;-91
2023/03/14 05:24:58;;;;;;;;;;;11.20;92.00;;;10.62;74.57;97944.06;5042938;28;19947;-91
2023/03/14 05:27:31;;;;;;;;;;;11.20;91.90;;;10.64;74.46;97941.13;5049404;28;19929;-91
2023/03/14 05:30:21;;;;;;;;;;;11.20;91.90;;;10.65;74.88;97935.53;5047472;28;19928;-91
2023/03/14 05:32:48;;;;;;;;;;;11.20;91.80;;;10.65;74.53;97930.22;5049495;28;19929;-87
2023/03/14 05:35:34;;;;;;;;;;;11.30;92.20;;;10.66;74.52;97917.69;5033306;28;20015;-91
2023/03/14 05:38:18;;;;;;;;;;;11.30;91.90;;;10.65;74.56;97930.22;5048714;28;20750;-91
2023/03/14 05:40:46;;;;;;;;;;;11.30;92.00;;;10.65;74.35;97935.53;5046191;28;19964;-88
2023/03/14 05:43:42;;;;;;;;;;;11.20;91.80;;;10.66;74.57;97933.69;5031979;28;19925;-91
2023/03/14 05:46:24;;;;;;;;;;;11.20;92.00;;;10.66;74.31;97926.47;5045393;28;19928;-90
2023/03/14 05:49:17;;;;;;;;;;;11.20;91.90;;;10.65;74.48;97913.44;5041204;28;19948;-90
2023/03/14 05:51:54;;;;;;;;;;;11.20;91.80;;;10.65;74.50;97926.75;5046697;28;19979;-91
2023/03/14 05:54:43;;;;;;;;;;;11.30;92.00;;;10.65;74.68;97929.41;5046152;28;19932;-90
2023/03/14 05:57:30;;;;;;;;;;;11.40;92.20;;;10.64;74.57;97923.28;5046973;28;19955;-89
2023/03/14 06:00:18;;;;;;;;;;;11.30;92.10;;;10.65;74.77;97910.75;5041429;28;19940;-93
2023/03/14 06:03:02;;;;;;;;;;;11.20;92.20;;;10.66;74.78;97915.00;5048438;28;19972;-90
2023/03/14 06:05:33;;;;;;;;;;;11.30;92.40;;;10.65;75.10;97914.22;5047756;28;19924;-93
2023/03/14 06:08:02;;;;;;;;;;;11.30;92.30;;;10.64;75.00;97904.63;5041918;28;20495;-90
2023/03/14 06:10:31;;;;;;;;;;;11.30;92.40;;;10.64;74.94;97907.31;5047898;28;19942;-92
2023/03/14 06:12:59;;;;;;;;;;;11.30;92.40;;;10.65;75.01;97906.22;5047536;28;19928;-90
2023/03/14 06:15:26;;;;;;;;;;;11.30;92.40;;;10.66;75.12;97910.47;5047226;28;20744;-91
2023/03/14 06:17:55;;;;;;;;;;;11.30;92.50;;;10.65;75.88;97914.22;5059918;28;19933;-90
2023/03/14 06:20:24;;;;;;;;;;;11.30;93.00;;;10.65;75.73;97911.56;5049667;28;19924;-94
2023/03/14 06:22:51;;;;;;;;;;;11.30;92.80;;;10.66;75.69;97917.69;5051092;28;19928;-94
2023/03/14 06:25:19;;;;;;;;;;;11.30;92.80;;;10.66;75.77;97909.69;5047743;28;19991;-93
2023/03/14 06:27:48;;;;;;;;;;;11.30;93.00;;;10.62;76.85;97925.41;5048337;28;19928;-91
2023/03/14 06:30:17;;;;;;;;;;;11.30;93.80;;;10.60;77.23;97930.25;5047810;28;19944;-86
2023/03/14 06:32:44;;;;;;;;;;;11.20;93.70;;;10.60;77.47;97922.25;5047382;28;20355;-88
2023/03/14 06:35:14;;;;;;;;;;;11.30;94.00;;;10.59;77.89;97931.31;5044986;28;19933;-89
2023/03/14 06:37:45;;;;;;;;;;;11.30;94.20;;;10.58;78.06;97929.69;5045052;28;19929;-91
2023/03/14 06:40:16;;;;;;;;;;;11.20;94.00;;;10.60;77.65;97927.56;5046367;28;19932;-90
2023/03/14 06:43:00;;;;;;;;;;;11.30;93.90;;;10.64;77.79;97925.13;5048184;28;20399;-95
2023/03/14 06:45:30;;;;;;;;;;;11.30;94.20;;;10.65;77.66;97924.09;5054523;28;19935;-96
2023/03/14 06:47:59;;;;;;;;;;;11.30;94.00;;;10.65;78.18;97930.22;5067251;28;19925;-95
2023/03/14 07:55:24;;;;;;;;;;;11.40;96.40;;;10.73;81.63;97958.16;1913239;22;19929;-87
2023/03/14 07:57:51;;;;;;;;;;;11.40;96.40;;;10.71;81.81;97958.44;5023360;28;19929;-87
2023/03/14 08:00:18;;;;;;;;;;;11.40;96.60;;;10.68;82.65;97958.97;5038649;28;20380;-87
2023/03/14 08:02:45;;;;;;;;;;;11.40;97.20;;;10.65;82.79;97961.41;5039223;28;20313;-87
2023/03/14 08:05:12;;;;;;;;;;;11.40;97.00;;;10.66;83.21;97963.00;5024409;28;20371;-88
2023/03/14 08:07:39;;;;;;;;;;;11.40;97.50;;;10.66;83.63;97957.66;5007857;28;20402;-87
2023/03/14 08:10:08;;;;;;;;;;;11.40;97.90;;;10.68;83.83;97960.84;5028130;28;19937;-87
2023/03/14 08:12:38;;;;;;;;;;;11.40;97.80;;;10.70;83.42;97956.84;5010107;28;20386;-87
2023/03/14 08:15:06;;;;;;;;;;;11.50;97.70;;;10.72;83.69;97962.69;5015352;28;19929;-88
2023/03/14 08:17:33;;;;;;;;;;;11.40;98.10;;;10.76;84.40;97965.59;5004442;28;19930;-87
2023/03/14 08:20:00;;;;;;;;;;;11.50;98.30;;;10.78;84.52;97966.94;5007723;28;19936;-87
2023/03/14 08:22:27;;;;;;;;;;;11.50;98.40;;;10.80;84.61;97964.00;5011813;28;19930;-87
2023/03/14 08:24:54;;;;;;;;;;;11.50;98.40;;;10.84;84.55;97959.72;5010189;28;19934;-87
2023/03/14 08:27:21;;;;;;;;;;;11.60;98.40;;;10.86;84.66;97960.22;5007770;28;19933;-88
2023/03/14 08:29:49;;;;;;;;;;;11.60;98.50;;;10.87;85.05;97964.47;5007760;28;19928;-87
2023/03/14 08:32:16;;;;;;;;;;;11.60;98.70;;;10.87;85.24;97979.69;5006355;28;19929;-87
2023/03/14 08:34:43;;;;;;;;;;;11.60;98.70;;;10.86;85.25;97972.75;5004613;28;19936;-88
2023/03/14 08:37:10;;;;;;;;;;;11.60;98.90;;;10.81;85.79;97976.25;5005680;28;19934;-88
2023/03/14 08:39:37;;;;;;;;;;;11.50;99.20;;;10.82;85.79;97975.97;5008210;28;19930;-88
2023/03/14 08:42:04;;;;;;;;;;;11.60;99.20;;;10.87;85.34;97971.69;5004888;28;19925;-88
2023/03/14 08:44:31;;;;;;;;;;;11.60;98.50;;;10.91;85.84;97978.88;5008708;28;19933;-88
2023/03/14 08:47:00;;;;;;;;;;;11.60;99.20;;;10.91;86.06;97967.41;5004333;28;19929;-88
2023/03/14 08:49:27;;;;;;;;;;;11.60;99.20;;;10.93;86.00;97979.41;5001867;28;19936;-88
2023/03/14 08:51:54;;;;;;;;;;;11.60;99.00;;;10.94;85.79;97980.19;5024070;28;19929;-88
2023/03/14 08:54:21;;;;;;;;;;;11.70;99.10;;;10.98;86.07;97982.03;5021833;28;20032;-89
2023/03/14 08:56:47;;;;;;;;;;;11.70;99.20;;;11.00;85.70;97981.75;5005061;28;19936;-88
2023/03/14 08:59:14;;;;;;;;;;;11.70;99.10;;;10.99;85.46;97990.84;4999329;28;20426;-88
2023/03/14 09:01:41;;;;;;;;;;;11.70;98.90;;;10.99;85.55;97983.63;5008407;28;19929;-88
2023/03/14 09:04:10;;;;;;;;;;;11.70;99.10;;;10.98;85.52;97994.56;5006666;28;19930;-88
2023/03/14 09:06:37;;;;;;;;;;;11.70;99.00;;;10.96;85.70;97997.50;5004510;28;20707;-83
2023/03/14 09:09:04;;;;;;;;;;;11.70;99.10;;;10.97;85.00;97996.44;5007195;28;19929;-84
2023/03/14 09:11:31;;;;;;;;;;;11.70;98.50;;;10.92;84.48;98003.66;5009247;28;20405;-86
2023/03/14 09:13:58;;;;;;;;;;;11.70;98.10;;;10.86;83.89;98010.88;5009028;28;19940;-86
2023/03/14 09:16:25;;;;;;;;;;;11.60;97.70;;;10.75;83.38;98015.47;5005097;28;19929;-85
2023/03/14 09:18:54;;;;;;;;;;;11.50;97.40;;;10.73;83.73;98025.59;5005394;28;20392;-85
2023/03/14 09:21:23;;;;;;;;;;;11.50;97.70;;;10.71;84.02;98014.41;5002873;28;20442;-85
2023/03/14 09:23:49;;;;;;;;;;;11.50;97.90;;;10.72;83.95;98026.66;5010207;28;19934;-85
2023/03/14 09:26:16;;;;;;;;;;;11.70;98.00;;;10.68;84.28;98046.94;5005675;28;19937;-85
2023/03/14 09:28:43;;;;;;;;;;;11.50;98.00;;;10.69;84.37;98077.09;5006188;28;19929;-85
2023/03/14 09:31:12;;;;;;;;;;;11.50;98.10;;;10.63;83.50;98092.25;5006414;28;19988;-85
2023/03/14 09:33:39;;;;;;;;;;;11.40;97.60;;;10.63;83.14;98110.91;5005180;28;19936;-85
2023/03/14 09:36:08;;;;;;;;;;;11.40;97.00;;;10.61;81.33;98109.59;5004711;28;19929;-86
2023/03/14 09:38:36;;;;;;;;;;;11.40;95.80;;;10.46;80.13;98118.44;5006015;28;19926;-85
2023/03/14 09:41:12;;;;;;;;;;;11.30;95.20;;;10.42;79.60;98144.00;5012409;28;19933;-85
2023/03/14 09:43:41;;;;;;;;;;;11.20;94.90;;;10.34;77.81;98149.84;5026221;28;19930;-85
2023/03/14 09:46:10;;;;;;;;;;;11.10;93.80;;;10.27;78.83;98164.25;5009664;28;19930;-85
2023/03/14 09:48:37;;;;;;;;;;;11.00;94.30;;;10.20;78.82;98173.53;5005598;28;19956;-85
2023/03/14 09:51:12;;;;;;;;;;;10.90;94.60;;;10.18;79.35;98179.13;5003435;28;19936;-84
2023/03/14 09:53:42;;;;;;;;;;;10.90;94.90;;;10.21;78.96;98194.59;5011348;28;20020;-86
2023/03/14 09:56:13;;;;;;;;;;;10.90;94.80;;;10.14;78.58;98201.22;5011147;28;19933;-86
2023/03/14 09:58:43;;;;;;;;;;;10.90;94.70;;;10.01;77.90;98219.31;5011189;28;19933;-86
2023/03/14 10:01:12;;;;;;;;;;;10.80;94.20;;;10.02;78.64;98231.56;5011417;28;19929;-87
2023/03/14 10:03:39;;;;;;;;;;;10.80;94.50;;;10.05;78.59;98240.88;5010673;28;19930;-84
2023/03/14 10:06:11;;;;;;;;;;;10.80;94.40;;;9.94;78.12;98256.03;5001157;28;19929;-84
2023/03/14 10:08:41;;;;;;;;;;;10.70;94.40;;;9.96;78.30;98258.47;5011362;28;19935;-85
2023/03/14 10:11:15;;;;;;;;;;;10.70;94.40;;;9.90;77.26;98262.94;5008234;28;19929;-86
2023/03/14 10:13:50;;;;;;;;;;;10.60;93.50;;;9.91;78.12;98280.53;5001394;28;19934;-85
2023/03/14 10:16:17;;;;;;;;;;;10.60;94.30;;;9.95;78.13;98294.09;5026206;28;19930;-85
2023/03/14 10:18:47;;;;;;;;;;;10.60;94.20;;;9.98;78.15;98288.28;5013136;28;19929;-85
2023/03/14 10:21:25;;;;;;;;;;;10.60;94.50;;;9.97;78.02;98307.97;5013737;28;19930;-82
2023/03/14 10:23:54;;;;;;;;;;;10.60;94.10;;;9.97;77.92;98307.97;5003089;28;20358;-82
2023/03/14 10:26:27;;;;;;;;;;;10.60;94.20;;;9.95;77.17;98320.75;5006597;28;19933;-82
2023/03/14 10:29:02;;;;;;;;;;;10.60;93.80;;;9.89;76.90;98324.44;5004064;28;19930;-81
2023/03/14 10:31:46;;;;;;;;;;;10.50;93.70;;;9.84;76.47;98337.72;5005212;28;19936;-82
2023/03/14 10:34:17;;;;;;;;;;;10.50;93.50;;;9.76;76.04;98349.66;5003660;28;19953;-82
2023/03/14 10:36:47;;;;;;;;;;;10.50;93.20;;;9.62;76.53;98365.31;5004627;28;19930;-82
2023/03/14 10:39:26;;;;;;;;;;;10.30;93.60;;;9.63;77.81;98392.72;4999899;28;20283;-81
2023/03/14 10:41:56;;;;;;;;;;;10.30;94.30;;;9.59;77.75;98383.63;5017966;28;19937;-82
2023/03/14 10:44:25;;;;;;;;;;;10.30;94.20;;;9.58;77.93;98400.66;5005814;28;20303;-81
2023/03/14 10:46:57;;;;;;;;;;;10.30;94.40;;;9.63;78.14;98417.47;5003568;28;19940;-82
2023/03/14 10:49:29;;;;;;;;;;;10.30;94.60;;;9.68;78.43;98443.31;5008508;28;20021;-82
2023/03/14 10:51:56;;;;;;;;;;;10.30;94.80;;;9.63;77.61;98462.72;4998486;28;19933;-83
2023/03/14 10:54:24;;;;;;;;;;;10.30;93.90;;;9.53;75.66;98468.75;5023212;28;19940;-83
2023/03/14 10:57:02;;;;;;;;;;;10.30;92.90;;;9.52;75.84;98490.31;4999785;28;19925;-83
2023/03/14 10:59:36;;;;;;;;;;;10.30;93.00;;;9.44;74.94;98496.88;5013397;28;20028;-82
2023/03/14 11:02:08;;;;;;;;;;;10.20;92.20;;;9.42;74.29;98511.47;5006177;28;19944;-83
2023/03/14 11:04:53;;;;;;;;;;;10.10;91.60;;;9.44;74.55;98515.50;5008720;28;19929;-83
2023/03/14 11:07:25;;;;;;;;;;;10.10;91.90;;;9.46;74.00;98531.22;5004446;28;19952;-83
2023/03/14 11:09:57;;;;;;;;;;;10.10;91.40;;;9.38;73.34;98542.31;5007664;28;19961;-82
2023/03/14 11:12:35;;;;;;;;;;;10.10;91.20;;;9.36;73.42;98555.06;5025350;28;20416;-82
2023/03/14 11:15:06;;;;;;;;;;;10.10;91.30;;;9.32;73.28;98567.25;5015001;28;20387;-82
2023/03/14 11:17:40;;;;;;;;;;;10.00;91.00;;;9.23;72.56;98590.84;5008498;28;20039;-82
2023/03/14 11:20:24;;;;;;;;;;;10.20;90.80;;;9.23;72.05;98588.97;5006604;28;19929;-82
2023/03/14 11:22:56;;;;;;;;;;;10.00;90.00;;;9.25;72.55;98613.47;5005657;28;20438;-83
2023/03/14 11:25:30;;;;;;;;;;;10.00;90.50;;;9.27;72.28;98623.84;5014793;28;19940;-82
2023/03/14 11:28:05;;;;;;;;;;;10.00;90.20;;;9.31;72.34;98634.81;5006245;28;20058;-82
2023/03/14 11:30:40;;;;;;;;;;;10.10;90.60;;;9.32;72.07;98639.06;5009334;28;19933;-83
2023/03/14 11:33:14;;;;;;;;;;;10.00;90.20;;;9.24;71.15;98643.78;5009299;28;19929;-83
2023/03/14 11:35:45;;;;;;;;;;;10.00;89.40;;;9.24;70.83;98651.75;5013069;28;19929;-83
2023/03/14 11:38:25;;;;;;;;;;;9.90;89.20;;;9.27;70.91;98664.56;5012792;28;20623;-83
2023/03/14 11:40:54;;;;;;;;;;;9.90;89.30;;;9.28;70.91;98668.84;5003982;28;19940;-83
2023/03/14 11:43:28;;;;;;;;;;;9.90;89.20;;;9.29;71.48;98670.44;5012691;28;20005;-82
2023/03/14 11:45:57;;;;;;;;;;;9.90;89.70;;;9.27;70.74;98687.69;5029817;28;19929;-82
2023/03/14 11:48:30;;;;;;;;;;;9.90;89.20;;;9.28;70.63;98695.44;5015485;28;19929;-83
2023/03/14 11:51:00;;;;;;;;;;;9.90;89.30;;;9.26;69.90;98694.88;5006851;28;19930;-83
2023/03/14 11:53:40;;;;;;;;;;;9.90;88.50;;;9.28;70.15;98706.09;5003899;28;19929;-83
2023/03/14 11:56:12;;;;;;;;;;;9.90;88.90;;;9.31;70.32;98719.94;4998873;28;19925;-83
2023/03/14 11:58:42;;;;;;;;;;;9.90;89.00;;;9.29;69.87;98728.16;5008254;28;19934;-82
2023/03/14 12:01:20;;;;;;;;;;;9.90;88.50;;;9.20;69.06;98735.75;5006013;28;19929;-82
2023/03/14 12:03:55;;;;;;;;;;;9.90;87.80;;;9.13;68.11;98737.78;5008334;28;19936;-82
2023/03/14 12:06:26;;;;;;;;;;;9.80;86.80;;;9.13;68.71;98737.00;5005176;28;20045;-82
2023/03/14 12:08:54;;;;;;;;;;;9.80;87.80;;;9.06;66.59;98745.13;5009217;28;19936;-82
2023/03/14 12:11:30;;;;;;;;;;;9.80;85.50;;;9.02;67.72;98757.28;5008232;28;20413;-82
2023/03/14 12:13:57;;;;;;;;;;;9.80;86.70;;;9.00;68.54;98756.75;5010972;28;19936;-82
2023/03/14 12:16:37;;;;;;;;;;;9.80;87.40;;;9.08;69.72;98766.97;5012330;28;20037;-82
2023/03/14 12:19:33;;;;;;;;;;;9.80;88.30;;;9.15;69.97;98767.59;5012335;28;20024;-82
2023/03/14 12:22:22;;;;;;;;;;;9.80;88.80;;;9.19;69.41;98773.25;5005849;28;19929;-82
2023/03/14 12:24:52;;;;;;;;;;;9.80;87.90;;;9.22;69.65;98786.88;5010111;28;19929;-83
2023/03/14 12:27:45;;;;;;;;;;;9.80;88.40;;;9.27;69.68;98784.28;5029307;28;19936;-82
2023/03/14 12:30:20;;;;;;;;;;;9.90;88.50;;;9.34;69.20;98800.06;4992791;28;19936;-83
2023/03/14 12:33:32;;;;;;;;;;;9.90;87.90;;;9.38;69.17;98811.84;5014319;28;20358;-82
2023/03/14 12:36:11;;;;;;;;;;;10.00;87.90;;;9.43;69.16;98814.56;5014969;28;19929;-83
2023/03/14 12:39:01;;;;;;;;;;;10.00;87.90;;;9.46;68.52;98823.91;5014532;28;19933;-82
2023/03/14 12:41:30;;;;;;;;;;;10.10;87.50;;;9.49;68.43;98829.53;5001723;28;20044;-83
2023/03/14 12:44:20;;;;;;;;;;;10.10;87.40;;;9.48;67.46;98835.13;5004423;28;19932;-82